sensor_id;sensor_type;location;lat;lon;timestamp;P1;durP1;ratioP1;P2;durP2;ratioP2
51636;SDS011;37713;53.254;6.460;2023-03-01T00:02:11;20.80;;;10.68;;
51636;SDS011;37713;53.254;6.460;2023-03-01T00:04:37;18.40;;;9.95;;
51636;SDS011;37713;53.254;6.460;2023-03-01T00:07:03;20.00;;;10.25;;
51636;SDS011;37713;53.254;6.460;2023-03-01T00:09:28;18.42;;;9.90;;
51636;SDS011;37713;53.254;6.460;2023-03-01T00:11:54;21.52;;;10.82;;
51636;SDS011;37713;53.254;6.460;2023-03-01T00:14:20;20.30;;;10.80;;
51636;SDS011;37713;53.254;6.460;2023-03-01T00:16:46;19.73;;;10.50;;
51636;SDS011;37713;53.254;6.460;2023-03-01T00:19:13;20.25;;;10.68;;
51636;SDS011;37713;53.254;6.460;2023-03-01T00:21:40;18.10;;;9.73;;
51636;SDS011;37713;53.254;6.460;2023-03-01T00:24:06;17.25;;;8.80;;
51636;SDS011;37713;53.254;6.460;2023-03-01T00:26:32;19.60;;;9.30;;
51636;SDS011;37713;53.254;6.460;2023-03-01T00:28:59;15.45;;;9.38;;
51636;SDS011;37713;53.254;6.460;2023-03-01T00:31:26;14.43;;;8.15;;
51636;SDS011;37713;53.254;6.460;2023-03-01T00:33:55;17.65;;;8.50;;
51636;SDS011;37713;53.254;6.460;2023-03-01T00:36:23;28.90;;;11.02;;
51636;SDS011;37713;53.254;6.460;2023-03-01T00:38:51;30.20;;;12.60;;
51636;SDS011;37713;53.254;6.460;2023-03-01T00:41:17;48.80;;;15.73;;
51636;SDS011;37713;53.254;6.460;2023-03-01T00:43:44;85.93;;;26.42;;
51636;SDS011;37713;53.254;6.460;2023-03-01T00:46:13;64.57;;;22.73;;
51636;SDS011;37713;53.254;6.460;2023-03-01T00:48:41;55.92;;;20.35;;
51636;SDS011;37713;53.254;6.460;2023-03-01T00:51:08;104.85;;;28.75;;
51636;SDS011;37713;53.254;6.460;2023-03-01T00:53:39;66.05;;;22.02;;
51636;SDS011;37713;53.254;6.460;2023-03-01T00:56:06;55.30;;;19.42;;
51636;SDS011;37713;53.254;6.460;2023-03-01T00:58:33;39.35;;;15.30;;
51636;SDS011;37713;53.254;6.460;2023-03-01T01:01:00;29.27;;;12.40;;
51636;SDS011;37713;53.254;6.460;2023-03-01T01:03:31;20.05;;;9.48;;
51636;SDS011;37713;53.254;6.460;2023-03-01T01:05:57;18.90;;;8.00;;
51636;SDS011;37713;53.254;6.460;2023-03-01T01:08:23;14.40;;;7.28;;
51636;SDS011;37713;53.254;6.460;2023-03-01T01:10:49;34.38;;;11.18;;
51636;SDS011;37713;53.254;6.460;2023-03-01T01:13:14;23.48;;;8.77;;
51636;SDS011;37713;53.254;6.460;2023-03-01T01:15:41;21.10;;;9.18;;
51636;SDS011;37713;53.254;6.460;2023-03-01T01:18:07;18.58;;;7.78;;
51636;SDS011;37713;53.254;6.460;2023-03-01T01:20:35;12.20;;;6.25;;
51636;SDS011;37713;53.254;6.460;2023-03-01T01:23:01;12.52;;;6.18;;
51636;SDS011;37713;53.254;6.460;2023-03-01T01:25:29;16.55;;;7.38;;
51636;SDS011;37713;53.254;6.460;2023-03-01T01:27:55;12.45;;;6.25;;
51636;SDS011;37713;53.254;6.460;2023-03-01T01:30:21;48.53;;;10.93;;
51636;SDS011;37713;53.254;6.460;2023-03-01T01:32:47;69.03;;;17.67;;
51636;SDS011;37713;53.254;6.460;2023-03-01T01:35:12;41.35;;;14.70;;
51636;SDS011;37713;53.254;6.460;2023-03-01T01:37:38;27.15;;;9.23;;
51636;SDS011;37713;53.254;6.460;2023-03-01T01:40:04;16.92;;;7.60;;
51636;SDS011;37713;53.254;6.460;2023-03-01T01:42:31;24.35;;;8.18;;
51636;SDS011;37713;53.254;6.460;2023-03-01T01:47:51;13.13;;;6.03;;
51636;SDS011;37713;53.254;6.460;2023-03-01T01:50:19;18.13;;;5.45;;
51636;SDS011;37713;53.254;6.460;2023-03-01T01:52:45;13.38;;;5.18;;
51636;SDS011;37713;53.254;6.460;2023-03-01T01:55:15;27.25;;;5.10;;
51636;SDS011;37713;53.254;6.460;2023-03-01T01:57:51;10.27;;;5.15;;
51636;SDS011;37713;53.254;6.460;2023-03-01T02:00:25;8.43;;;4.85;;
51636;SDS011;37713;53.254;6.460;2023-03-01T02:02:59;16.83;;;5.55;;
51636;SDS011;37713;53.254;6.460;2023-03-01T02:08:02;25.58;;;6.13;;
51636;SDS011;37713;53.254;6.460;2023-03-01T02:10:27;33.53;;;5.43;;
51636;SDS011;37713;53.254;6.460;2023-03-01T02:12:54;14.57;;;5.45;;
51636;SDS011;37713;53.254;6.460;2023-03-01T02:15:22;15.30;;;5.25;;
51636;SDS011;37713;53.254;6.460;2023-03-01T02:17:48;33.10;;;5.93;;
51636;SDS011;37713;53.254;6.460;2023-03-01T02:22:43;35.95;;;6.10;;
51636;SDS011;37713;53.254;6.460;2023-03-01T02:30:14;9.82;;;5.45;;
51636;SDS011;37713;53.254;6.460;2023-03-01T02:32:41;8.05;;;5.03;;
51636;SDS011;37713;53.254;6.460;2023-03-01T02:35:11;9.60;;;5.40;;
51636;SDS011;37713;53.254;6.460;2023-03-01T02:37:40;8.10;;;4.60;;
51636;SDS011;37713;53.254;6.460;2023-03-01T02:40:09;10.68;;;5.72;;
51636;SDS011;37713;53.254;6.460;2023-03-01T02:42:59;10.15;;;5.20;;
51636;SDS011;37713;53.254;6.460;2023-03-01T02:45:25;11.35;;;5.13;;
51636;SDS011;37713;53.254;6.460;2023-03-01T02:47:55;9.68;;;5.43;;
51636;SDS011;37713;53.254;6.460;2023-03-01T02:50:33;9.73;;;5.10;;
51636;SDS011;37713;53.254;6.460;2023-03-01T02:54:01;9.63;;;5.28;;
51636;SDS011;37713;53.254;6.460;2023-03-01T02:56:14;10.15;;;5.20;;
51636;SDS011;37713;53.254;6.460;2023-03-01T02:58:41;10.52;;;5.50;;
51636;SDS011;37713;53.254;6.460;2023-03-01T03:01:13;10.55;;;5.25;;
51636;SDS011;37713;53.254;6.460;2023-03-01T03:03:41;10.20;;;5.60;;
51636;SDS011;37713;53.254;6.460;2023-03-01T03:06:07;10.07;;;5.57;;
51636;SDS011;37713;53.254;6.460;2023-03-01T03:08:33;10.15;;;5.68;;
51636;SDS011;37713;53.254;6.460;2023-03-01T03:10:59;13.30;;;6.63;;
51636;SDS011;37713;53.254;6.460;2023-03-01T03:13:24;11.88;;;6.40;;
51636;SDS011;37713;53.254;6.460;2023-03-01T03:15:56;13.10;;;6.68;;
51636;SDS011;37713;53.254;6.460;2023-03-01T03:18:23;12.93;;;7.10;;
51636;SDS011;37713;53.254;6.460;2023-03-01T03:23:19;14.00;;;7.03;;
51636;SDS011;37713;53.254;6.460;2023-03-01T03:25:49;14.18;;;7.57;;
51636;SDS011;37713;53.254;6.460;2023-03-01T03:28:16;14.32;;;7.55;;
51636;SDS011;37713;53.254;6.460;2023-03-01T03:30:43;13.05;;;7.55;;
51636;SDS011;37713;53.254;6.460;2023-03-01T03:33:09;12.93;;;6.93;;
51636;SDS011;37713;53.254;6.460;2023-03-01T03:35:45;15.27;;;7.63;;
51636;SDS011;37713;53.254;6.460;2023-03-01T03:38:13;15.15;;;7.45;;
51636;SDS011;37713;53.254;6.460;2023-03-01T03:43:18;12.43;;;6.60;;
51636;SDS011;37713;53.254;6.460;2023-03-01T03:45:45;15.02;;;7.25;;
51636;SDS011;37713;53.254;6.460;2023-03-01T03:48:12;15.38;;;7.18;;
51636;SDS011;37713;53.254;6.460;2023-03-01T03:50:38;20.60;;;6.85;;
51636;SDS011;37713;53.254;6.460;2023-03-01T03:53:06;24.15;;;7.45;;
51636;SDS011;37713;53.254;6.460;2023-03-01T03:55:33;24.50;;;6.45;;
51636;SDS011;37713;53.254;6.460;2023-03-01T03:58:01;26.88;;;6.72;;
51636;SDS011;37713;53.254;6.460;2023-03-01T04:00:32;42.50;;;8.45;;
51636;SDS011;37713;53.254;6.460;2023-03-01T04:03:02;55.88;;;8.15;;
51636;SDS011;37713;53.254;6.460;2023-03-01T04:05:28;24.77;;;7.22;;
51636;SDS011;37713;53.254;6.460;2023-03-01T04:07:55;34.22;;;7.60;;
51636;SDS011;37713;53.254;6.460;2023-03-01T04:10:30;30.30;;;7.47;;
51636;SDS011;37713;53.254;6.460;2023-03-01T04:12:58;32.00;;;6.82;;
51636;SDS011;37713;53.254;6.460;2023-03-01T04:15:25;24.13;;;7.43;;
51636;SDS011;37713;53.254;6.460;2023-03-01T04:17:52;40.67;;;9.25;;
51636;SDS011;37713;53.254;6.460;2023-03-01T04:20:20;33.83;;;9.93;;
51636;SDS011;37713;53.254;6.460;2023-03-01T04:22:58;17.60;;;7.35;;
51636;SDS011;37713;53.254;6.460;2023-03-01T04:25:39;26.42;;;7.32;;
51636;SDS011;37713;53.254;6.460;2023-03-01T04:28:06;14.45;;;7.18;;
51636;SDS011;37713;53.254;6.460;2023-03-01T04:30:33;13.98;;;7.25;;
51636;SDS011;37713;53.254;6.460;2023-03-01T04:33:08;12.82;;;6.75;;
51636;SDS011;37713;53.254;6.460;2023-03-01T04:35:34;13.15;;;6.68;;
51636;SDS011;37713;53.254;6.460;2023-03-01T04:38:01;12.40;;;6.75;;
51636;SDS011;37713;53.254;6.460;2023-03-01T04:40:28;12.73;;;6.88;;
51636;SDS011;37713;53.254;6.460;2023-03-01T04:42:54;13.13;;;6.95;;
51636;SDS011;37713;53.254;6.460;2023-03-01T04:45:20;15.45;;;7.90;;
51636;SDS011;37713;53.254;6.460;2023-03-01T04:47:46;16.92;;;8.43;;
51636;SDS011;37713;53.254;6.460;2023-03-01T04:50:13;14.57;;;7.90;;
51636;SDS011;37713;53.254;6.460;2023-03-01T04:52:41;16.35;;;8.35;;
51636;SDS011;37713;53.254;6.460;2023-03-01T04:55:08;14.10;;;7.70;;
51636;SDS011;37713;53.254;6.460;2023-03-01T04:57:35;13.88;;;7.72;;
51636;SDS011;37713;53.254;6.460;2023-03-01T05:00:01;12.23;;;6.90;;
51636;SDS011;37713;53.254;6.460;2023-03-01T05:02:45;11.07;;;6.72;;
51636;SDS011;37713;53.254;6.460;2023-03-01T05:05:20;11.43;;;6.32;;
51636;SDS011;37713;53.254;6.460;2023-03-01T05:07:58;12.70;;;7.13;;
51636;SDS011;37713;53.254;6.460;2023-03-01T05:10:27;10.18;;;6.10;;
51636;SDS011;37713;53.254;6.460;2023-03-01T05:12:54;9.43;;;5.63;;
51636;SDS011;37713;53.254;6.460;2023-03-01T05:15:22;11.88;;;6.30;;
51636;SDS011;37713;53.254;6.460;2023-03-01T05:17:52;11.57;;;6.53;;
51636;SDS011;37713;53.254;6.460;2023-03-01T05:20:19;11.98;;;6.50;;
51636;SDS011;37713;53.254;6.460;2023-03-01T05:22:49;11.43;;;6.95;;
51636;SDS011;37713;53.254;6.460;2023-03-01T05:25:15;11.77;;;6.50;;
51636;SDS011;37713;53.254;6.460;2023-03-01T05:27:42;11.32;;;6.60;;
51636;SDS011;37713;53.254;6.460;2023-03-01T05:30:08;11.93;;;6.63;;
51636;SDS011;37713;53.254;6.460;2023-03-01T05:32:44;12.85;;;6.63;;
51636;SDS011;37713;53.254;6.460;2023-03-01T05:35:15;10.65;;;6.47;;
51636;SDS011;37713;53.254;6.460;2023-03-01T05:37:46;11.65;;;6.78;;
51636;SDS011;37713;53.254;6.460;2023-03-01T05:40:14;11.88;;;6.60;;
51636;SDS011;37713;53.254;6.460;2023-03-01T05:42:46;11.80;;;6.82;;
51636;SDS011;37713;53.254;6.460;2023-03-01T05:45:14;12.18;;;6.78;;
51636;SDS011;37713;53.254;6.460;2023-03-01T05:47:42;11.60;;;6.53;;
51636;SDS011;37713;53.254;6.460;2023-03-01T05:50:16;10.02;;;5.88;;
51636;SDS011;37713;53.254;6.460;2023-03-01T05:52:47;13.13;;;7.20;;
51636;SDS011;37713;53.254;6.460;2023-03-01T05:55:15;11.82;;;6.47;;
51636;SDS011;37713;53.254;6.460;2023-03-01T05:57:42;12.77;;;7.30;;
51636;SDS011;37713;53.254;6.460;2023-03-01T06:00:09;15.20;;;7.47;;
51636;SDS011;37713;53.254;6.460;2023-03-01T06:02:35;14.80;;;8.73;;
51636;SDS011;37713;53.254;6.460;2023-03-01T06:05:02;14.15;;;8.20;;
51636;SDS011;37713;53.254;6.460;2023-03-01T06:07:30;13.82;;;8.02;;
51636;SDS011;37713;53.254;6.460;2023-03-01T06:09:56;14.18;;;8.30;;
51636;SDS011;37713;53.254;6.460;2023-03-01T06:12:22;13.20;;;7.78;;
51636;SDS011;37713;53.254;6.460;2023-03-01T06:14:47;13.23;;;7.90;;
51636;SDS011;37713;53.254;6.460;2023-03-01T06:17:13;16.10;;;8.88;;
51636;SDS011;37713;53.254;6.460;2023-03-01T06:19:39;18.67;;;9.13;;
51636;SDS011;37713;53.254;6.460;2023-03-01T06:22:05;16.77;;;8.65;;
51636;SDS011;37713;53.254;6.460;2023-03-01T06:24:31;14.00;;;8.52;;
51636;SDS011;37713;53.254;6.460;2023-03-01T06:26:58;14.52;;;7.80;;
51636;SDS011;37713;53.254;6.460;2023-03-01T06:29:24;13.50;;;7.68;;
51636;SDS011;37713;53.254;6.460;2023-03-01T06:31:50;13.75;;;7.63;;
51636;SDS011;37713;53.254;6.460;2023-03-01T06:34:15;12.32;;;7.18;;
51636;SDS011;37713;53.254;6.460;2023-03-01T06:36:41;12.63;;;7.40;;
51636;SDS011;37713;53.254;6.460;2023-03-01T06:39:07;14.82;;;8.00;;
51636;SDS011;37713;53.254;6.460;2023-03-01T06:41:33;12.07;;;7.40;;
51636;SDS011;37713;53.254;6.460;2023-03-01T06:43:59;15.02;;;8.00;;
51636;SDS011;37713;53.254;6.460;2023-03-01T06:46:25;13.68;;;7.90;;
51636;SDS011;37713;53.254;6.460;2023-03-01T06:48:51;12.73;;;8.13;;
51636;SDS011;37713;53.254;6.460;2023-03-01T06:51:17;13.80;;;7.60;;
51636;SDS011;37713;53.254;6.460;2023-03-01T06:53:43;14.30;;;7.88;;
51636;SDS011;37713;53.254;6.460;2023-03-01T06:56:10;12.38;;;7.65;;
51636;SDS011;37713;53.254;6.460;2023-03-01T06:58:36;14.38;;;8.15;;
51636;SDS011;37713;53.254;6.460;2023-03-01T07:01:05;14.63;;;8.00;;
51636;SDS011;37713;53.254;6.460;2023-03-01T07:03:34;15.20;;;8.02;;
51636;SDS011;37713;53.254;6.460;2023-03-01T07:06:00;15.50;;;8.38;;
51636;SDS011;37713;53.254;6.460;2023-03-01T07:08:25;15.10;;;8.52;;
51636;SDS011;37713;53.254;6.460;2023-03-01T07:10:55;17.75;;;9.40;;
51636;SDS011;37713;53.254;6.460;2023-03-01T07:13:21;17.27;;;8.77;;
51636;SDS011;37713;53.254;6.460;2023-03-01T07:15:47;17.85;;;9.40;;
51636;SDS011;37713;53.254;6.460;2023-03-01T07:18:13;16.50;;;9.30;;
51636;SDS011;37713;53.254;6.460;2023-03-01T07:20:38;18.10;;;9.10;;
51636;SDS011;37713;53.254;6.460;2023-03-01T07:23:05;18.70;;;9.38;;
51636;SDS011;37713;53.254;6.460;2023-03-01T07:25:31;15.57;;;9.02;;
51636;SDS011;37713;53.254;6.460;2023-03-01T07:27:57;16.45;;;8.88;;
51636;SDS011;37713;53.254;6.460;2023-03-01T07:30:23;16.20;;;9.48;;
51636;SDS011;37713;53.254;6.460;2023-03-01T07:32:56;17.52;;;10.02;;
51636;SDS011;37713;53.254;6.460;2023-03-01T07:35:23;17.15;;;9.68;;
51636;SDS011;37713;53.254;6.460;2023-03-01T07:37:51;17.85;;;9.40;;
51636;SDS011;37713;53.254;6.460;2023-03-01T07:40:17;16.98;;;9.15;;
51636;SDS011;37713;53.254;6.460;2023-03-01T07:42:42;18.35;;;10.30;;
51636;SDS011;37713;53.254;6.460;2023-03-01T07:45:09;19.77;;;10.55;;
51636;SDS011;37713;53.254;6.460;2023-03-01T07:47:35;16.63;;;9.98;;
51636;SDS011;37713;53.254;6.460;2023-03-01T07:50:01;16.67;;;9.95;;
51636;SDS011;37713;53.254;6.460;2023-03-01T07:52:27;19.02;;;10.65;;
51636;SDS011;37713;53.254;6.460;2023-03-01T07:54:53;19.15;;;10.98;;
51636;SDS011;37713;53.254;6.460;2023-03-01T07:57:22;21.55;;;11.18;;
51636;SDS011;37713;53.254;6.460;2023-03-01T07:59:48;18.90;;;10.63;;
51636;SDS011;37713;53.254;6.460;2023-03-01T08:02:14;19.98;;;11.02;;
51636;SDS011;37713;53.254;6.460;2023-03-01T08:04:40;22.08;;;11.88;;
51636;SDS011;37713;53.254;6.460;2023-03-01T08:07:07;23.40;;;12.35;;
51636;SDS011;37713;53.254;6.460;2023-03-01T08:09:36;22.50;;;11.93;;
51636;SDS011;37713;53.254;6.460;2023-03-01T08:12:03;23.83;;;12.32;;
51636;SDS011;37713;53.254;6.460;2023-03-01T08:14:30;22.02;;;12.27;;
51636;SDS011;37713;53.254;6.460;2023-03-01T08:16:57;25.02;;;12.15;;
51636;SDS011;37713;53.254;6.460;2023-03-01T08:19:23;23.33;;;12.57;;
51636;SDS011;37713;53.254;6.460;2023-03-01T08:21:53;25.52;;;12.27;;
51636;SDS011;37713;53.254;6.460;2023-03-01T08:24:18;25.50;;;13.82;;
51636;SDS011;37713;53.254;6.460;2023-03-01T08:26:44;26.00;;;13.88;;
51636;SDS011;37713;53.254;6.460;2023-03-01T08:29:10;24.80;;;13.43;;
51636;SDS011;37713;53.254;6.460;2023-03-01T08:31:38;25.75;;;14.27;;
51636;SDS011;37713;53.254;6.460;2023-03-01T08:34:06;29.00;;;15.73;;
51636;SDS011;37713;53.254;6.460;2023-03-01T08:36:41;32.67;;;15.83;;
51636;SDS011;37713;53.254;6.460;2023-03-01T08:39:08;31.45;;;16.20;;
51636;SDS011;37713;53.254;6.460;2023-03-01T08:41:35;33.72;;;17.85;;
51636;SDS011;37713;53.254;6.460;2023-03-01T08:44:02;38.13;;;19.17;;
51636;SDS011;37713;53.254;6.460;2023-03-01T08:46:28;43.45;;;20.00;;
51636;SDS011;37713;53.254;6.460;2023-03-01T08:48:59;50.17;;;22.38;;
51636;SDS011;37713;53.254;6.460;2023-03-01T08:51:25;48.33;;;21.98;;
51636;SDS011;37713;53.254;6.460;2023-03-01T08:53:51;48.72;;;24.05;;
51636;SDS011;37713;53.254;6.460;2023-03-01T08:56:17;51.45;;;24.13;;
51636;SDS011;37713;53.254;6.460;2023-03-01T08:58:45;51.05;;;25.17;;
51636;SDS011;37713;53.254;6.460;2023-03-01T09:01:12;50.35;;;25.63;;
51636;SDS011;37713;53.254;6.460;2023-03-01T09:03:39;55.95;;;26.98;;
51636;SDS011;37713;53.254;6.460;2023-03-01T09:06:06;51.55;;;27.73;;
51636;SDS011;37713;53.254;6.460;2023-03-01T09:08:39;68.85;;;32.10;;
51636;SDS011;37713;53.254;6.460;2023-03-01T09:11:09;57.92;;;30.77;;
51636;SDS011;37713;53.254;6.460;2023-03-01T09:13:36;59.72;;;30.88;;
51636;SDS011;37713;53.254;6.460;2023-03-01T09:16:03;54.65;;;29.73;;
51636;SDS011;37713;53.254;6.460;2023-03-01T09:18:30;54.30;;;28.40;;
51636;SDS011;37713;53.254;6.460;2023-03-01T09:21:04;57.90;;;28.83;;
51636;SDS011;37713;53.254;6.460;2023-03-01T09:23:36;55.63;;;28.38;;
51636;SDS011;37713;53.254;6.460;2023-03-01T09:26:07;59.70;;;29.25;;
51636;SDS011;37713;53.254;6.460;2023-03-01T09:28:37;57.35;;;30.73;;
51636;SDS011;37713;53.254;6.460;2023-03-01T09:31:05;57.58;;;28.67;;
51636;SDS011;37713;53.254;6.460;2023-03-01T09:33:31;50.00;;;27.63;;
51636;SDS011;37713;53.254;6.460;2023-03-01T09:38:23;49.17;;;27.35;;
51636;SDS011;37713;53.254;6.460;2023-03-01T09:40:49;46.00;;;25.25;;
51636;SDS011;37713;53.254;6.460;2023-03-01T09:43:18;50.53;;;25.25;;
51636;SDS011;37713;53.254;6.460;2023-03-01T09:45:54;47.83;;;24.87;;
51636;SDS011;37713;53.254;6.460;2023-03-01T09:50:52;35.83;;;20.35;;
51636;SDS011;37713;53.254;6.460;2023-03-01T09:53:19;31.77;;;18.23;;
51636;SDS011;37713;53.254;6.460;2023-03-01T09:56:00;34.55;;;19.50;;
51636;SDS011;37713;53.254;6.460;2023-03-01T10:03:43;30.75;;;17.85;;
51636;SDS011;37713;53.254;6.460;2023-03-01T10:06:21;28.73;;;16.55;;
51636;SDS011;37713;53.254;6.460;2023-03-01T10:08:54;27.63;;;15.45;;
51636;SDS011;37713;53.254;6.460;2023-03-01T10:11:25;29.80;;;15.65;;
51636;SDS011;37713;53.254;6.460;2023-03-01T10:19:14;47.80;;;28.52;;
51636;SDS011;37713;53.254;6.460;2023-03-01T10:21:55;31.10;;;18.35;;
51636;SDS011;37713;53.254;6.460;2023-03-01T10:24:27;29.80;;;18.38;;
51636;SDS011;37713;53.254;6.460;2023-03-01T10:27:01;31.38;;;18.05;;
51636;SDS011;37713;53.254;6.460;2023-03-01T10:29:40;29.67;;;18.90;;
51636;SDS011;37713;53.254;6.460;2023-03-01T10:32:24;33.15;;;20.42;;
51636;SDS011;37713;53.254;6.460;2023-03-01T10:34:51;30.77;;;17.38;;
51636;SDS011;37713;53.254;6.460;2023-03-01T10:37:18;30.52;;;18.27;;
51636;SDS011;37713;53.254;6.460;2023-03-01T10:40:06;31.63;;;18.10;;
51636;SDS011;37713;53.254;6.460;2023-03-01T10:42:57;30.48;;;16.80;;
51636;SDS011;37713;53.254;6.460;2023-03-01T10:50:37;29.08;;;17.40;;
51636;SDS011;37713;53.254;6.460;2023-03-01T10:53:05;30.73;;;18.40;;
51636;SDS011;37713;53.254;6.460;2023-03-01T10:55:56;31.50;;;19.05;;
51636;SDS011;37713;53.254;6.460;2023-03-01T10:58:26;30.38;;;19.13;;
51636;SDS011;37713;53.254;6.460;2023-03-01T11:03:20;31.27;;;19.60;;
51636;SDS011;37713;53.254;6.460;2023-03-01T11:08:28;31.80;;;18.95;;
51636;SDS011;37713;53.254;6.460;2023-03-01T11:13:30;31.33;;;19.75;;
51636;SDS011;37713;53.254;6.460;2023-03-01T11:16:06;29.30;;;17.77;;
51636;SDS011;37713;53.254;6.460;2023-03-01T11:18:37;27.70;;;18.05;;
51636;SDS011;37713;53.254;6.460;2023-03-01T11:21:03;26.98;;;17.45;;
51636;SDS011;37713;53.254;6.460;2023-03-01T11:23:30;28.52;;;17.90;;
51636;SDS011;37713;53.254;6.460;2023-03-01T11:26:05;27.25;;;16.00;;
51636;SDS011;37713;53.254;6.460;2023-03-01T11:28:34;26.02;;;15.85;;
51636;SDS011;37713;53.254;6.460;2023-03-01T11:31:05;28.25;;;16.25;;
51636;SDS011;37713;53.254;6.460;2023-03-01T11:33:39;24.13;;;14.85;;
51636;SDS011;37713;53.254;6.460;2023-03-01T11:36:24;20.55;;;13.38;;
51636;SDS011;37713;53.254;6.460;2023-03-01T11:39:02;21.17;;;13.00;;
51636;SDS011;37713;53.254;6.460;2023-03-01T11:41:39;23.70;;;14.18;;
51636;SDS011;37713;53.254;6.460;2023-03-01T11:58:15;23.08;;;13.35;;
51636;SDS011;37713;53.254;6.460;2023-03-01T12:06:48;18.65;;;12.07;;
51636;SDS011;37713;53.254;6.460;2023-03-01T12:09:41;21.98;;;15.15;;
51636;SDS011;37713;53.254;6.460;2023-03-01T12:17:58;20.10;;;13.07;;
51636;SDS011;37713;53.254;6.460;2023-03-01T12:28:28;20.38;;;12.75;;
51636;SDS011;37713;53.254;6.460;2023-03-01T12:50:03;22.92;;;13.10;;
51636;SDS011;37713;53.254;6.460;2023-03-01T12:52:43;20.88;;;13.35;;
51636;SDS011;37713;53.254;6.460;2023-03-01T12:58:15;20.33;;;11.93;;
51636;SDS011;37713;53.254;6.460;2023-03-01T13:12:00;18.58;;;10.02;;
51636;SDS011;37713;53.254;6.460;2023-03-01T13:17:00;17.48;;;10.43;;
51636;SDS011;37713;53.254;6.460;2023-03-01T13:19:26;18.80;;;10.98;;
51636;SDS011;37713;53.254;6.460;2023-03-01T13:21:57;18.60;;;11.45;;
51636;SDS011;37713;53.254;6.460;2023-03-01T13:29:43;21.17;;;11.50;;
51636;SDS011;37713;53.254;6.460;2023-03-01T13:34:46;21.17;;;12.13;;
51636;SDS011;37713;53.254;6.460;2023-03-01T13:37:24;20.42;;;12.43;;
51636;SDS011;37713;53.254;6.460;2023-03-01T13:39:56;19.92;;;11.85;;
51636;SDS011;37713;53.254;6.460;2023-03-01T13:42:34;20.05;;;12.02;;
51636;SDS011;37713;53.254;6.460;2023-03-01T13:45:21;20.55;;;12.43;;
51636;SDS011;37713;53.254;6.460;2023-03-01T13:47:58;19.02;;;12.20;;
51636;SDS011;37713;53.254;6.460;2023-03-01T13:50:28;20.00;;;13.13;;
51636;SDS011;37713;53.254;6.460;2023-03-01T13:52:58;21.35;;;13.48;;
51636;SDS011;37713;53.254;6.460;2023-03-01T13:55:35;20.80;;;13.18;;
51636;SDS011;37713;53.254;6.460;2023-03-01T13:58:25;20.83;;;13.88;;
51636;SDS011;37713;53.254;6.460;2023-03-01T14:00:57;21.73;;;14.05;;
51636;SDS011;37713;53.254;6.460;2023-03-01T14:03:26;21.27;;;14.68;;
51636;SDS011;37713;53.254;6.460;2023-03-01T14:08:32;19.10;;;12.75;;
51636;SDS011;37713;53.254;6.460;2023-03-01T14:19:45;21.48;;;12.20;;
51636;SDS011;37713;53.254;6.460;2023-03-01T14:22:16;18.23;;;12.00;;
51636;SDS011;37713;53.254;6.460;2023-03-01T14:27:35;19.70;;;11.13;;
51636;SDS011;37713;53.254;6.460;2023-03-01T14:30:26;17.92;;;10.82;;
51636;SDS011;37713;53.254;6.460;2023-03-01T14:33:00;19.23;;;12.15;;
51636;SDS011;37713;53.254;6.460;2023-03-01T14:35:32;18.37;;;11.90;;
51636;SDS011;37713;53.254;6.460;2023-03-01T14:38:00;19.30;;;11.43;;
51636;SDS011;37713;53.254;6.460;2023-03-01T14:40:34;22.70;;;15.13;;
51636;SDS011;37713;53.254;6.460;2023-03-01T14:43:01;19.92;;;12.13;;
51636;SDS011;37713;53.254;6.460;2023-03-01T14:45:34;22.35;;;13.50;;
51636;SDS011;37713;53.254;6.460;2023-03-01T14:48:02;19.20;;;11.45;;
51636;SDS011;37713;53.254;6.460;2023-03-01T14:50:31;19.67;;;12.75;;
51636;SDS011;37713;53.254;6.460;2023-03-01T14:53:05;20.88;;;14.18;;
51636;SDS011;37713;53.254;6.460;2023-03-01T14:55:38;20.00;;;13.15;;
51636;SDS011;37713;53.254;6.460;2023-03-01T14:58:13;19.30;;;11.95;;
51636;SDS011;37713;53.254;6.460;2023-03-01T15:00:46;20.45;;;12.05;;
51636;SDS011;37713;53.254;6.460;2023-03-01T15:03:24;19.08;;;12.85;;
51636;SDS011;37713;53.254;6.460;2023-03-01T15:05:55;21.60;;;12.00;;
51636;SDS011;37713;53.254;6.460;2023-03-01T15:08:24;28.52;;;14.48;;
51636;SDS011;37713;53.254;6.460;2023-03-01T15:13:26;19.48;;;12.30;;
51636;SDS011;37713;53.254;6.460;2023-03-01T15:16:03;23.80;;;16.30;;
51636;SDS011;37713;53.254;6.460;2023-03-01T15:18:50;26.42;;;16.38;;
51636;SDS011;37713;53.254;6.460;2023-03-01T15:21:32;35.50;;;24.40;;
51636;SDS011;37713;53.254;6.460;2023-03-01T15:24:05;25.60;;;17.35;;
51636;SDS011;37713;53.254;6.460;2023-03-01T15:26:56;23.80;;;16.33;;
51636;SDS011;37713;53.254;6.460;2023-03-01T15:29:31;23.45;;;14.90;;
51636;SDS011;37713;53.254;6.460;2023-03-01T15:32:02;18.20;;;12.63;;
51636;SDS011;37713;53.254;6.460;2023-03-01T15:34:47;20.92;;;13.07;;
51636;SDS011;37713;53.254;6.460;2023-03-01T15:37:36;21.15;;;12.48;;
51636;SDS011;37713;53.254;6.460;2023-03-01T15:39:58;25.15;;;18.73;;
51636;SDS011;37713;53.254;6.460;2023-03-01T15:47:38;24.25;;;12.63;;
51636;SDS011;37713;53.254;6.460;2023-03-01T15:50:11;20.73;;;13.05;;
51636;SDS011;37713;53.254;6.460;2023-03-01T15:52:48;27.10;;;17.88;;
51636;SDS011;37713;53.254;6.460;2023-03-01T15:55:16;28.88;;;17.48;;
51636;SDS011;37713;53.254;6.460;2023-03-01T15:57:44;26.13;;;15.73;;
51636;SDS011;37713;53.254;6.460;2023-03-01T16:00:11;24.48;;;15.45;;
51636;SDS011;37713;53.254;6.460;2023-03-01T16:02:39;25.65;;;15.55;;
51636;SDS011;37713;53.254;6.460;2023-03-01T16:05:09;25.92;;;15.75;;
51636;SDS011;37713;53.254;6.460;2023-03-01T16:07:44;26.25;;;15.23;;
51636;SDS011;37713;53.254;6.460;2023-03-01T16:10:10;23.70;;;15.07;;
51636;SDS011;37713;53.254;6.460;2023-03-01T16:12:35;24.73;;;15.35;;
51636;SDS011;37713;53.254;6.460;2023-03-01T16:15:01;23.27;;;14.38;;
51636;SDS011;37713;53.254;6.460;2023-03-01T16:17:27;22.88;;;15.15;;
51636;SDS011;37713;53.254;6.460;2023-03-01T16:19:53;24.33;;;14.93;;
51636;SDS011;37713;53.254;6.460;2023-03-01T16:22:19;26.52;;;14.35;;
51636;SDS011;37713;53.254;6.460;2023-03-01T16:24:49;29.75;;;17.83;;
51636;SDS011;37713;53.254;6.460;2023-03-01T16:27:15;26.98;;;15.75;;
51636;SDS011;37713;53.254;6.460;2023-03-01T16:29:41;23.08;;;15.13;;
51636;SDS011;37713;53.254;6.460;2023-03-01T16:32:07;29.13;;;16.35;;
51636;SDS011;37713;53.254;6.460;2023-03-01T16:34:33;25.70;;;15.10;;
51636;SDS011;37713;53.254;6.460;2023-03-01T16:36:59;26.83;;;15.90;;
51636;SDS011;37713;53.254;6.460;2023-03-01T16:39:24;24.95;;;14.00;;
51636;SDS011;37713;53.254;6.460;2023-03-01T16:41:50;26.85;;;16.30;;
51636;SDS011;37713;53.254;6.460;2023-03-01T16:44:16;21.25;;;13.27;;
51636;SDS011;37713;53.254;6.460;2023-03-01T16:46:42;22.00;;;13.18;;
51636;SDS011;37713;53.254;6.460;2023-03-01T16:49:08;21.95;;;12.88;;
51636;SDS011;37713;53.254;6.460;2023-03-01T16:51:34;24.42;;;13.02;;
51636;SDS011;37713;53.254;6.460;2023-03-01T16:54:01;20.55;;;12.48;;
51636;SDS011;37713;53.254;6.460;2023-03-01T16:56:27;22.15;;;12.90;;
51636;SDS011;37713;53.254;6.460;2023-03-01T16:58:54;20.80;;;12.70;;
51636;SDS011;37713;53.254;6.460;2023-03-01T17:01:20;25.48;;;13.38;;
51636;SDS011;37713;53.254;6.460;2023-03-01T17:03:49;23.90;;;12.75;;
51636;SDS011;37713;53.254;6.460;2023-03-01T17:06:18;23.50;;;13.60;;
51636;SDS011;37713;53.254;6.460;2023-03-01T17:08:49;25.55;;;13.82;;